Terminal Aerodrome Forecast
Issued by NWS Amarillo, TX

Home | Current Version | Previous Version | Text Only | Print | Product List | Glossary On
Versions: 1 2 3 4 5 6 7 8 9 10 11 12 13 14 15 16 17 18 19 20 21
000
FTUS44 KAMA 202100 AAD
TAFAMA
TAF AMD
KAMA 202145Z 2022/2118 21015G24KT P6SM VCTS BKN060CB
      TEMPO 2022/2024 VRB20G30KT 4SM TSRA BKN040CB
     FM210000 28010KT P6SM BKN060
     FM211400 36016G24KT P6SM SCT080=

USA.gov is the U.S. government's official web portal to all federal, state and local government web resources and services.